CYXX

Abbotsford Airport

Abbotsford, , Canada
METAR CYXX 211500Z 18017KT 15SM -SHRA SCT025 BKN050 BKN070 08/04 A3025 RMK SC3SC3AC1 CVCTV CLD EMBD SLP248
Observed Flight Rules
Apr-21 @ 15:00 UTC (40 minutes ago) Visual Flight Rules
Wind Visibility Clouds Conditions
180° at 17 knots 15 miles
  • Scattered at 2,500' AGL
  • Broken at 5,000' AGL
  • Broken at 7,000' AGL
  • Light Rain
Temperatures Readings
Current 8°C / 46°F
Dewpoint 4°C / 39°F
Humidity 76%
Altimeter 30.25" Hg
Pressure 1024.8 hPa
Elevation 58
METAR CYXX 211500Z 18017KT 15SM -SHRA SCT025 BKN050 BKN070 08/04 A3025 RMK SC3SC3AC1 CVCTV CLD EMBD SLP248
Observed Flight Rules
Apr-21 @ 15:00 UTC
(40 minutes ago)
VFR
Wind Visibility
180° at 17 knots 15 miles
Clouds
  • Scattered at 2,500' AGL
  • Broken at 5,000' AGL
  • Broken at 7,000' AGL
Conditions
  • Light Rain
Temperature Dewpoint
8°C / 46°F 4°C / 39°F
Humidity Altimeter Pressure
76% 30.25" Hg 1024.8 hPa